JIA5282 KHPN-KDCA
Flight info
| Callsign | JIA5282 |
|---|---|
| Flight time | 0h 47m |
| Altitude | 34000 |
| Route | BIGGY Q75 MXE CLIPR3 |
| Aircraft | CRJ7/M-SDFGIRWY/S |
Departure
| Time | 2026-04-20 16:36 |
|---|---|
| Airport | Westchester County Airport (KHPN) |
Arrival
| Time | 2026-04-20 17:24 |
|---|---|
| Airport | Ronald Reagan Washington National Airport (KDCA) |
| Time | Latitude | Longitude | Altitude | Speed | Heading |
|---|---|---|---|---|---|
| 2026-04-20 16:10 | 41.06836 | -73.70500 | 407 ft | 0 kts | 59° |
| 2026-04-20 16:25 | 41.06830 | -73.70515 | 407 ft | 4 kts | 68° |
| 2026-04-20 16:25 | 41.06828 | -73.70547 | 407 ft | 4 kts | 108° |
| 2026-04-20 16:25 | 41.06842 | -73.70570 | 404 ft | 2 kts | 150° |
| 2026-04-20 16:26 | 41.06847 | -73.70573 | 406 ft | 0 kts | 150° |
| 2026-04-20 16:31 | 41.06844 | -73.70571 | 405 ft | 1 kts | 150° |
| 2026-04-20 16:32 | 41.06832 | -73.70562 | 401 ft | 3 kts | 150° |
| 2026-04-20 16:32 | 41.06809 | -73.70544 | 403 ft | 5 kts | 150° |
| 2026-04-20 16:32 | 41.06760 | -73.70507 | 407 ft | 12 kts | 150° |
| 2026-04-20 16:32 | 41.06671 | -73.70439 | 403 ft | 17 kts | 150° |
| 2026-04-20 16:33 | 41.06634 | -73.70410 | 401 ft | 18 kts | 149° |
| 2026-04-20 16:33 | 41.06560 | -73.70354 | 398 ft | 20 kts | 150° |
| 2026-04-20 16:33 | 41.06426 | -73.70252 | 389 ft | 25 kts | 150° |
| 2026-04-20 16:33 | 41.06289 | -73.70146 | 388 ft | 15 kts | 149° |
| 2026-04-20 16:34 | 41.06243 | -73.70111 | 386 ft | 4 kts | 150° |
| 2026-04-20 16:34 | 41.06209 | -73.70085 | 385 ft | 7 kts | 150° |
| 2026-04-20 16:34 | 41.06153 | -73.70043 | 382 ft | 11 kts | 150° |
| 2026-04-20 16:34 | 41.06073 | -73.70031 | 380 ft | 11 kts | 208° |
| 2026-04-20 16:35 | 41.06028 | -73.70106 | 379 ft | 11 kts | 238° |
| 2026-04-20 16:35 | 41.06016 | -73.70150 | 379 ft | 2 kts | 295° |
| 2026-04-20 16:35 | 41.06025 | -73.70160 | 379 ft | 4 kts | 326° |
| 2026-04-20 16:35 | 41.06159 | -73.70264 | 385 ft | 53 kts | 329° |
| 2026-04-20 16:36 | 41.06676 | -73.70658 | 404 ft | 116 kts | 329° |
| 2026-04-20 16:36 | 41.07500 | -73.71283 | 596 ft | 145 kts | 331° |
| 2026-04-20 16:36 | 41.08406 | -73.71888 | 1278 ft | 147 kts | 333° |
| 2026-04-20 16:36 | 41.09346 | -73.72500 | 1861 ft | 157 kts | 331° |
| 2026-04-20 16:37 | 41.10358 | -73.73287 | 2236 ft | 174 kts | 318° |
| 2026-04-20 16:37 | 41.10986 | -73.74669 | 2795 ft | 186 kts | 285° |
| 2026-04-20 16:37 | 41.11257 | -73.76372 | 3519 ft | 190 kts | 282° |
| 2026-04-20 16:37 | 41.11477 | -73.78152 | 3960 ft | 209 kts | 281° |
| 2026-04-20 16:38 | 41.11452 | -73.80151 | 4356 ft | 230 kts | 254° |
| 2026-04-20 16:38 | 41.10627 | -73.82044 | 5000 ft | 241 kts | 237° |
| 2026-04-20 16:38 | 41.09590 | -73.83817 | 5804 ft | 243 kts | 233° |
| 2026-04-20 16:38 | 41.08502 | -73.85541 | 6587 ft | 244 kts | 233° |
| 2026-04-20 16:39 | 41.07424 | -73.87281 | 7323 ft | 245 kts | 233° |
| 2026-04-20 16:39 | 41.06342 | -73.89030 | 8033 ft | 246 kts | 233° |
| 2026-04-20 16:39 | 41.05256 | -73.90790 | 8736 ft | 247 kts | 234° |
| 2026-04-20 16:39 | 41.04186 | -73.92587 | 9416 ft | 249 kts | 234° |
| 2026-04-20 16:40 | 41.03118 | -73.94397 | 10135 ft | 250 kts | 234° |
| 2026-04-20 16:40 | 41.02029 | -73.96250 | 10570 ft | 260 kts | 235° |
| 2026-04-20 16:40 | 41.00897 | -73.98189 | 10978 ft | 271 kts | 234° |
| 2026-04-20 16:40 | 40.99721 | -74.00200 | 11379 ft | 281 kts | 234° |
| 2026-04-20 16:41 | 40.98515 | -74.02251 | 11789 ft | 290 kts | 234° |
| 2026-04-20 16:41 | 40.97258 | -74.04393 | 12208 ft | 299 kts | 234° |
| 2026-04-20 16:41 | 40.95962 | -74.06592 | 12636 ft | 306 kts | 233° |
| 2026-04-20 16:41 | 40.94652 | -74.08823 | 13275 ft | 307 kts | 233° |
| 2026-04-20 16:42 | 40.93337 | -74.11056 | 13904 ft | 308 kts | 233° |
| 2026-04-20 16:42 | 40.92021 | -74.13293 | 14465 ft | 309 kts | 233° |
| 2026-04-20 16:42 | 40.90690 | -74.15549 | 14971 ft | 313 kts | 233° |
| 2026-04-20 16:42 | 40.89345 | -74.17832 | 15465 ft | 316 kts | 233° |
| 2026-04-20 16:43 | 40.87982 | -74.20142 | 15896 ft | 321 kts | 233° |
| 2026-04-20 16:43 | 40.86605 | -74.22478 | 16408 ft | 324 kts | 234° |
| 2026-04-20 16:43 | 40.85232 | -74.24803 | 16915 ft | 326 kts | 234° |
| 2026-04-20 16:43 | 40.83825 | -74.27179 | 17427 ft | 329 kts | 234° |
| 2026-04-20 16:44 | 40.82410 | -74.29569 | 17926 ft | 331 kts | 234° |
| 2026-04-20 16:44 | 40.80981 | -74.31979 | 18385 ft | 334 kts | 234° |
| 2026-04-20 16:44 | 40.79547 | -74.34405 | 18783 ft | 336 kts | 234° |
| 2026-04-20 16:44 | 40.78102 | -74.36840 | 19167 ft | 338 kts | 234° |
| 2026-04-20 16:45 | 40.76644 | -74.39297 | 19443 ft | 342 kts | 234° |
| 2026-04-20 16:45 | 40.75169 | -74.41788 | 19699 ft | 347 kts | 234° |
| 2026-04-20 16:45 | 40.73669 | -74.44310 | 19956 ft | 352 kts | 234° |
| 2026-04-20 16:45 | 40.72141 | -74.46874 | 20104 ft | 359 kts | 234° |
| 2026-04-20 16:46 | 40.70578 | -74.49498 | 20163 ft | 368 kts | 234° |
| 2026-04-20 16:46 | 40.68998 | -74.52146 | 20202 ft | 377 kts | 234° |
| 2026-04-20 16:46 | 40.67368 | -74.54882 | 20217 ft | 381 kts | 234° |
| 2026-04-20 16:46 | 40.65727 | -74.57630 | 20226 ft | 382 kts | 234° |
| 2026-04-20 16:47 | 40.64084 | -74.60384 | 20224 ft | 382 kts | 234° |
| 2026-04-20 16:47 | 40.62439 | -74.63133 | 20229 ft | 382 kts | 234° |
| 2026-04-20 16:47 | 40.60790 | -74.65886 | 20228 ft | 382 kts | 234° |
| 2026-04-20 16:47 | 40.59144 | -74.68639 | 20228 ft | 383 kts | 234° |
| 2026-04-20 16:48 | 40.57495 | -74.71387 | 20230 ft | 383 kts | 234° |
| 2026-04-20 16:48 | 40.55842 | -74.74138 | 20228 ft | 383 kts | 234° |
| 2026-04-20 16:48 | 40.54188 | -74.76895 | 20221 ft | 383 kts | 234° |
| 2026-04-20 16:48 | 40.52534 | -74.79643 | 20231 ft | 383 kts | 234° |
| 2026-04-20 16:49 | 40.50887 | -74.82381 | 20231 ft | 380 kts | 234° |
| 2026-04-20 16:49 | 40.49250 | -74.85101 | 20233 ft | 378 kts | 234° |
| 2026-04-20 16:49 | 40.47641 | -74.87768 | 20236 ft | 376 kts | 234° |
| 2026-04-20 16:49 | 40.46020 | -74.90453 | 20233 ft | 375 kts | 234° |
| 2026-04-20 16:50 | 40.44404 | -74.93127 | 20239 ft | 374 kts | 234° |
| 2026-04-20 16:50 | 40.42783 | -74.95802 | 20239 ft | 374 kts | 234° |
| 2026-04-20 16:50 | 40.41131 | -74.98453 | 20252 ft | 376 kts | 232° |
| 2026-04-20 16:50 | 40.39387 | -75.01015 | 20227 ft | 378 kts | 230° |
| 2026-04-20 16:51 | 40.37576 | -75.03521 | 20229 ft | 379 kts | 229° |
| 2026-04-20 16:51 | 40.35767 | -75.06033 | 20222 ft | 379 kts | 230° |
| 2026-04-20 16:51 | 40.33962 | -75.08559 | 20234 ft | 379 kts | 230° |
| 2026-04-20 16:51 | 40.32165 | -75.11090 | 20237 ft | 379 kts | 230° |
| 2026-04-20 16:52 | 40.30362 | -75.13620 | 20224 ft | 380 kts | 230° |
| 2026-04-20 16:52 | 40.28556 | -75.16148 | 20223 ft | 380 kts | 230° |
| 2026-04-20 16:52 | 40.26748 | -75.18680 | 20220 ft | 380 kts | 230° |
| 2026-04-20 16:52 | 40.24942 | -75.21204 | 20213 ft | 379 kts | 230° |
| 2026-04-20 16:53 | 40.23140 | -75.23716 | 20230 ft | 379 kts | 230° |
| 2026-04-20 16:53 | 40.21337 | -75.26236 | 20244 ft | 379 kts | 230° |
| 2026-04-20 16:53 | 40.19556 | -75.28719 | 20245 ft | 379 kts | 230° |
| 2026-04-20 16:53 | 40.17748 | -75.31232 | 20232 ft | 379 kts | 230° |
| 2026-04-20 16:54 | 40.15939 | -75.33745 | 20237 ft | 378 kts | 230° |
| 2026-04-20 16:54 | 40.14137 | -75.36256 | 20242 ft | 378 kts | 230° |
| 2026-04-20 16:54 | 40.12335 | -75.38764 | 20239 ft | 378 kts | 230° |
| 2026-04-20 16:54 | 40.10530 | -75.41265 | 20238 ft | 378 kts | 230° |
| 2026-04-20 16:55 | 40.08731 | -75.43761 | 20246 ft | 378 kts | 230° |
| 2026-04-20 16:55 | 40.06922 | -75.46270 | 20265 ft | 379 kts | 230° |
| 2026-04-20 16:55 | 40.05113 | -75.48779 | 20261 ft | 380 kts | 230° |
| 2026-04-20 16:55 | 40.03320 | -75.51255 | 20250 ft | 380 kts | 230° |
| 2026-04-20 16:56 | 40.01503 | -75.53767 | 20252 ft | 381 kts | 230° |
| 2026-04-20 16:56 | 39.99684 | -75.56284 | 20210 ft | 381 kts | 230° |
| 2026-04-20 16:56 | 39.97859 | -75.58790 | 20239 ft | 381 kts | 230° |
| 2026-04-20 16:56 | 39.96038 | -75.61301 | 20248 ft | 380 kts | 230° |
| 2026-04-20 16:57 | 39.94223 | -75.63810 | 20234 ft | 380 kts | 231° |
| 2026-04-20 16:57 | 39.92411 | -75.66317 | 20228 ft | 379 kts | 231° |
| 2026-04-20 16:57 | 39.90725 | -75.68947 | 20229 ft | 376 kts | 237° |
| 2026-04-20 16:57 | 39.89236 | -75.71740 | 20230 ft | 375 kts | 240° |
| 2026-04-20 16:58 | 39.87825 | -75.74591 | 20223 ft | 374 kts | 240° |
| 2026-04-20 16:58 | 39.86413 | -75.77438 | 20220 ft | 374 kts | 240° |
| 2026-04-20 16:58 | 39.84973 | -75.80264 | 20233 ft | 375 kts | 239° |
| 2026-04-20 16:58 | 39.83513 | -75.83076 | 20228 ft | 375 kts | 239° |
| 2026-04-20 16:59 | 39.82046 | -75.85880 | 20234 ft | 375 kts | 239° |
| 2026-04-20 16:59 | 39.80578 | -75.88693 | 20234 ft | 376 kts | 239° |
| 2026-04-20 16:59 | 39.79127 | -75.91467 | 20232 ft | 376 kts | 239° |
| 2026-04-20 16:59 | 39.77655 | -75.94276 | 20228 ft | 376 kts | 239° |
| 2026-04-20 17:00 | 39.74712 | -75.99905 | 20233 ft | 376 kts | 239° |
| 2026-04-20 17:00 | 39.73236 | -76.02712 | 20237 ft | 376 kts | 239° |
| 2026-04-20 17:00 | 39.71759 | -76.05521 | 20237 ft | 376 kts | 239° |
| 2026-04-20 17:01 | 39.70281 | -76.08328 | 20224 ft | 377 kts | 239° |
| 2026-04-20 17:01 | 39.68785 | -76.11173 | 19698 ft | 385 kts | 239° |
| 2026-04-20 17:01 | 39.67287 | -76.14013 | 19096 ft | 376 kts | 239° |
| 2026-04-20 17:01 | 39.65823 | -76.16782 | 18482 ft | 369 kts | 239° |
| 2026-04-20 17:02 | 39.64384 | -76.19506 | 17756 ft | 362 kts | 239° |
| 2026-04-20 17:02 | 39.62975 | -76.22180 | 17073 ft | 356 kts | 239° |
| 2026-04-20 17:02 | 39.61588 | -76.24807 | 16395 ft | 350 kts | 239° |
| 2026-04-20 17:02 | 39.60219 | -76.27391 | 15731 ft | 345 kts | 239° |
| 2026-04-20 17:03 | 39.58787 | -76.29826 | 15083 ft | 345 kts | 228° |
| 2026-04-20 17:03 | 39.56937 | -76.31798 | 14518 ft | 343 kts | 220° |
| 2026-04-20 17:03 | 39.54986 | -76.33519 | 14111 ft | 336 kts | 217° |
| 2026-04-20 17:03 | 39.53038 | -76.35145 | 13664 ft | 328 kts | 217° |
| 2026-04-20 17:04 | 39.51131 | -76.36726 | 13213 ft | 322 kts | 217° |
| 2026-04-20 17:04 | 39.49266 | -76.38288 | 12775 ft | 316 kts | 217° |
| 2026-04-20 17:04 | 39.47451 | -76.39847 | 12482 ft | 313 kts | 218° |
| 2026-04-20 17:04 | 39.45644 | -76.41414 | 12219 ft | 312 kts | 218° |
| 2026-04-20 17:05 | 39.43872 | -76.42941 | 12232 ft | 300 kts | 218° |
| 2026-04-20 17:05 | 39.42154 | -76.44433 | 12105 ft | 296 kts | 218° |
| 2026-04-20 17:05 | 39.40438 | -76.45921 | 11858 ft | 296 kts | 218° |
| 2026-04-20 17:05 | 39.38730 | -76.47403 | 11649 ft | 295 kts | 218° |
| 2026-04-20 17:06 | 39.37028 | -76.48874 | 11438 ft | 294 kts | 218° |
| 2026-04-20 17:06 | 39.35331 | -76.50341 | 11248 ft | 292 kts | 218° |
| 2026-04-20 17:06 | 39.33671 | -76.51777 | 11076 ft | 289 kts | 218° |
| 2026-04-20 17:06 | 39.32006 | -76.53218 | 10889 ft | 287 kts | 218° |
| 2026-04-20 17:07 | 39.30352 | -76.54645 | 10711 ft | 285 kts | 218° |
| 2026-04-20 17:07 | 39.28710 | -76.56064 | 10522 ft | 281 kts | 218° |
| 2026-04-20 17:07 | 39.27641 | -76.56984 | 10382 ft | 275 kts | 218° |
| 2026-04-20 17:07 | 39.25554 | -76.58785 | 10191 ft | 266 kts | 218° |
| 2026-04-20 17:08 | 39.24536 | -76.59662 | 10090 ft | 265 kts | 218° |
| 2026-04-20 17:08 | 39.23010 | -76.60974 | 10029 ft | 263 kts | 218° |
| 2026-04-20 17:08 | 39.21488 | -76.62289 | 10022 ft | 264 kts | 218° |
| 2026-04-20 17:08 | 39.19955 | -76.63606 | 10025 ft | 265 kts | 218° |
| 2026-04-20 17:09 | 39.18419 | -76.64920 | 10026 ft | 265 kts | 218° |
| 2026-04-20 17:09 | 39.16896 | -76.66274 | 10021 ft | 265 kts | 222° |
| 2026-04-20 17:09 | 39.15670 | -76.67615 | 9993 ft | 264 kts | 226° |
| 2026-04-20 17:09 | 39.14339 | -76.69241 | 9993 ft | 263 kts | 228° |
| 2026-04-20 17:10 | 39.13046 | -76.70854 | 9982 ft | 262 kts | 227° |
| 2026-04-20 17:10 | 39.11734 | -76.72484 | 10028 ft | 262 kts | 227° |
| 2026-04-20 17:10 | 39.10409 | -76.74096 | 10026 ft | 262 kts | 227° |
| 2026-04-20 17:10 | 39.09080 | -76.75687 | 10031 ft | 261 kts | 226° |
| 2026-04-20 17:11 | 39.07744 | -76.77275 | 10001 ft | 261 kts | 226° |
| 2026-04-20 17:11 | 39.06406 | -76.78862 | 9743 ft | 261 kts | 226° |
| 2026-04-20 17:11 | 39.05069 | -76.80447 | 9434 ft | 261 kts | 226° |
| 2026-04-20 17:11 | 39.03732 | -76.82026 | 9152 ft | 261 kts | 226° |
| 2026-04-20 17:12 | 39.02398 | -76.83604 | 8868 ft | 261 kts | 226° |
| 2026-04-20 17:12 | 39.01060 | -76.85175 | 8590 ft | 260 kts | 226° |
| 2026-04-20 17:12 | 38.99727 | -76.86743 | 8341 ft | 260 kts | 226° |
| 2026-04-20 17:12 | 38.98391 | -76.88329 | 7946 ft | 263 kts | 227° |
| 2026-04-20 17:13 | 38.97036 | -76.89929 | 7640 ft | 264 kts | 226° |
| 2026-04-20 17:13 | 38.95634 | -76.91443 | 7375 ft | 264 kts | 224° |
| 2026-04-20 17:13 | 38.94201 | -76.92913 | 7092 ft | 264 kts | 223° |
| 2026-04-20 17:13 | 38.92552 | -76.93976 | 6786 ft | 274 kts | 197° |
| 2026-04-20 17:14 | 38.90644 | -76.94272 | 6477 ft | 277 kts | 187° |
| 2026-04-20 17:14 | 38.88707 | -76.94346 | 6148 ft | 279 kts | 185° |
| 2026-04-20 17:14 | 38.86769 | -76.94350 | 5840 ft | 278 kts | 184° |
| 2026-04-20 17:14 | 38.84854 | -76.94352 | 5539 ft | 278 kts | 184° |
| 2026-04-20 17:15 | 38.82919 | -76.94352 | 5231 ft | 278 kts | 184° |
| 2026-04-20 17:15 | 38.80987 | -76.94370 | 4905 ft | 278 kts | 185° |
| 2026-04-20 17:15 | 38.79055 | -76.94417 | 4615 ft | 277 kts | 185° |
| 2026-04-20 17:15 | 38.77129 | -76.94439 | 4315 ft | 277 kts | 182° |
| 2026-04-20 17:16 | 38.75218 | -76.94322 | 4134 ft | 272 kts | 179° |
| 2026-04-20 17:16 | 38.73371 | -76.94123 | 4054 ft | 260 kts | 178° |
| 2026-04-20 17:16 | 38.71619 | -76.93908 | 4013 ft | 243 kts | 178° |
| 2026-04-20 17:16 | 38.70033 | -76.93700 | 4025 ft | 217 kts | 178° |
| 2026-04-20 17:17 | 38.68574 | -76.93532 | 4005 ft | 207 kts | 180° |
| 2026-04-20 17:17 | 38.67203 | -76.93736 | 3965 ft | 192 kts | 213° |
| 2026-04-20 17:17 | 38.66409 | -76.94930 | 3741 ft | 172 kts | 261° |
| 2026-04-20 17:17 | 38.66212 | -76.96412 | 3608 ft | 169 kts | 267° |
| 2026-04-20 17:18 | 38.66048 | -76.97907 | 3445 ft | 170 kts | 268° |
| 2026-04-20 17:18 | 38.65897 | -76.99420 | 3223 ft | 170 kts | 270° |
| 2026-04-20 17:18 | 38.66174 | -77.00752 | 3064 ft | 150 kts | 318° |
| 2026-04-20 17:18 | 38.67014 | -77.01443 | 3034 ft | 139 kts | 327° |
| 2026-04-20 17:19 | 38.67840 | -77.02004 | 2998 ft | 129 kts | 332° |
| 2026-04-20 17:19 | 38.68697 | -77.02440 | 2880 ft | 136 kts | 338° |
| 2026-04-20 17:19 | 38.69583 | -77.02710 | 2727 ft | 131 kts | 347° |
| 2026-04-20 17:19 | 38.70511 | -77.02773 | 2589 ft | 135 kts | 354° |
| 2026-04-20 17:20 | 38.71504 | -77.02791 | 2431 ft | 147 kts | 354° |
| 2026-04-20 17:20 | 38.72512 | -77.02819 | 2216 ft | 143 kts | 353° |
| 2026-04-20 17:20 | 38.73468 | -77.02840 | 2062 ft | 134 kts | 354° |
| 2026-04-20 17:20 | 38.74412 | -77.02901 | 1894 ft | 135 kts | 351° |
| 2026-04-20 17:21 | 38.75330 | -77.03049 | 1669 ft | 130 kts | 346° |
| 2026-04-20 17:21 | 38.76213 | -77.03266 | 1476 ft | 128 kts | 345° |
| 2026-04-20 17:21 | 38.77084 | -77.03415 | 1372 ft | 131 kts | 353° |
| 2026-04-20 17:21 | 38.78006 | -77.03310 | 1288 ft | 135 kts | 4° |
| 2026-04-20 17:22 | 38.78936 | -77.03147 | 1133 ft | 135 kts | 358° |
| 2026-04-20 17:22 | 38.79855 | -77.03196 | 915 ft | 128 kts | 350° |
| 2026-04-20 17:22 | 38.80742 | -77.03308 | 717 ft | 130 kts | 351° |
| 2026-04-20 17:22 | 38.81664 | -77.03407 | 545 ft | 135 kts | 351° |
| 2026-04-20 17:23 | 38.82587 | -77.03507 | 376 ft | 131 kts | 351° |
| 2026-04-20 17:23 | 38.83488 | -77.03600 | 196 ft | 128 kts | 351° |
| 2026-04-20 17:23 | 38.84373 | -77.03696 | 28 ft | 122 kts | 351° |
| 2026-04-20 17:23 | 38.85043 | -77.03764 | 22 ft | 72 kts | 354° |
| 2026-04-20 17:24 | 38.85399 | -77.03802 | 22 ft | 28 kts | 354° |
| 2026-04-20 17:24 | 38.85508 | -77.03860 | 24 ft | 15 kts | 311° |
| 2026-04-20 17:24 | 38.85580 | -77.03959 | 23 ft | 15 kts | 320° |
| 2026-04-20 17:24 | 38.85656 | -77.04035 | 23 ft | 16 kts | 322° |
| 2026-04-20 17:25 | 38.85719 | -77.04097 | 23 ft | 0 kts | 322° |
| 2026-04-20 17:25 | 38.85729 | -77.04108 | 23 ft | 4 kts | 316° |
| 2026-04-20 17:25 | 38.85739 | -77.04154 | 22 ft | 6 kts | 257° |
| 2026-04-20 17:25 | 38.85724 | -77.04212 | 23 ft | 8 kts | 252° |
| 2026-04-20 17:26 | 38.85714 | -77.04258 | 23 ft | 4 kts | 274° |
| 2026-04-20 17:26 | 38.85729 | -77.04279 | 25 ft | 4 kts | 333° |
| 2026-04-20 17:26 | 38.85746 | -77.04288 | 22 ft | 1 kts | 338° |
| 2026-04-20 17:26 | 38.85750 | -77.04290 | 22 ft | 0 kts | 338° |